createdAt,value
2023-01-06T00:00:43.718Z,7.46
2023-01-06T00:03:49.665Z,7.47
2023-01-06T00:06:51.196Z,7.45
2023-01-06T00:09:52.927Z,7.44
2023-01-06T00:12:55.555Z,7.42
2023-01-06T00:15:57.315Z,7.40
2023-01-06T00:19:00.004Z,7.38
2023-01-06T00:22:01.558Z,7.33
2023-01-06T00:25:03.444Z,7.32
2023-01-06T00:28:05.244Z,7.35
2023-01-06T00:31:08.777Z,7.33
2023-01-06T00:34:10.835Z,7.30
2023-01-06T00:37:12.619Z,7.31
2023-01-06T00:40:14.294Z,7.28
2023-01-06T00:43:15.832Z,7.27
2023-01-06T00:46:17.411Z,7.27
2023-01-06T00:49:18.962Z,7.28
2023-01-06T00:52:20.515Z,7.30
2023-01-06T00:55:22.087Z,7.27
2023-01-06T00:58:23.668Z,7.25
2023-01-06T01:01:25.272Z,7.20
2023-01-06T01:04:26.937Z,7.14
2023-01-06T01:07:28.645Z,7.12
2023-01-06T01:10:30.312Z,7.13
2023-01-06T01:13:31.877Z,7.08
2023-01-06T01:16:33.459Z,7.02
2023-01-06T01:19:35.105Z,6.95
2023-01-06T01:22:36.615Z,6.85
2023-01-06T01:25:38.141Z,6.78
2023-01-06T01:28:39.669Z,6.73
2023-01-06T01:31:41.808Z,6.71
2023-01-06T01:34:43.358Z,6.68
2023-01-06T01:37:44.885Z,6.69
2023-01-06T01:40:49.899Z,6.65
2023-01-06T01:43:59.773Z,6.69
2023-01-06T01:47:01.405Z,6.71
2023-01-06T01:50:15.445Z,6.71
2023-01-06T01:53:32.173Z,6.70
2023-01-06T01:56:34.302Z,6.69
2023-01-06T01:59:36.781Z,6.69
2023-01-06T02:02:38.382Z,6.66
2023-01-06T02:05:41.749Z,6.63
2023-01-06T02:08:49.337Z,6.54
2023-01-06T02:11:52.174Z,6.52
2023-01-06T02:14:53.698Z,6.40
2023-01-06T02:18:07.267Z,6.36
2023-01-06T02:21:30.390Z,6.28
2023-01-06T02:24:34.879Z,6.22
2023-01-06T02:28:07.219Z,6.14
2023-01-06T02:31:33.508Z,6.08
2023-01-06T02:34:41.953Z,6.07
2023-01-06T02:37:48.184Z,6.05
2023-01-06T02:41:17.866Z,5.99
2023-01-06T02:44:24.496Z,5.98
2023-01-06T02:47:33.929Z,5.98
2023-01-06T02:50:47.916Z,5.91
2023-01-06T02:54:08.517Z,5.93
2023-01-06T02:57:12.590Z,5.96
2023-01-06T03:00:30.140Z,5.97
2023-01-06T03:03:33.747Z,5.99
2023-01-06T03:06:35.434Z,6.01
2023-01-06T03:09:37.697Z,6.02
2023-01-06T03:12:43.157Z,6.00
2023-01-06T03:15:44.687Z,6.02
2023-01-06T03:18:47.159Z,6.12
2023-01-06T03:21:48.884Z,6.37
2023-01-06T03:24:50.391Z,6.26
2023-01-06T03:27:51.948Z,6.25
2023-01-06T03:31:00.914Z,6.26
2023-01-06T03:34:15.278Z,6.24
2023-01-06T03:37:56.342Z,6.25
2023-01-06T03:41:18.002Z,6.30
2023-01-06T03:44:29.714Z,6.47
2023-01-06T03:47:40.068Z,6.46
2023-01-06T03:51:06.530Z,6.57
2023-01-06T03:54:24.997Z,6.57
2023-01-06T03:57:33.410Z,6.65
2023-01-06T04:00:37.000Z,6.68
2023-01-06T04:03:38.696Z,6.67
2023-01-06T04:06:40.288Z,6.71
2023-01-06T04:09:41.819Z,6.73
2023-01-06T04:12:43.402Z,6.73
2023-01-06T04:15:44.902Z,6.71
2023-01-06T04:18:46.815Z,6.63
2023-01-06T04:21:48.369Z,6.56
2023-01-06T04:24:49.874Z,6.56
2023-01-06T04:27:51.415Z,6.59
2023-01-06T04:30:52.921Z,6.62
2023-01-06T04:33:54.452Z,6.68
2023-01-06T04:36:56.050Z,6.72
2023-01-06T04:39:57.571Z,6.75
2023-01-06T04:43:05.087Z,6.77
2023-01-06T04:46:06.659Z,6.81
2023-01-06T04:49:08.305Z,6.82
2023-01-06T04:52:09.903Z,7.06
2023-01-06T04:55:11.528Z,7.17
2023-01-06T04:58:13.028Z,7.18
2023-01-06T05:01:14.686Z,7.16
2023-01-06T05:04:16.514Z,7.18
2023-01-06T05:07:18.034Z,7.21
2023-01-06T05:10:19.521Z,7.18
2023-01-06T05:13:21.058Z,7.17
2023-01-06T05:16:23.923Z,7.15
2023-01-06T05:19:25.480Z,7.11
2023-01-06T05:22:27.043Z,7.13
2023-01-06T05:25:28.547Z,7.12
2023-01-06T05:28:30.171Z,7.11
2023-01-06T05:31:31.721Z,7.20
2023-01-06T05:34:33.266Z,7.27
2023-01-06T05:37:35.779Z,7.29
2023-01-06T05:40:37.297Z,7.28
2023-01-06T05:43:38.856Z,7.28
2023-01-06T05:46:40.367Z,7.31
2023-01-06T05:49:41.868Z,7.30
2023-01-06T05:52:43.427Z,7.32
2023-01-06T05:55:44.953Z,7.32
2023-01-06T05:58:47.987Z,7.30
2023-01-06T06:01:50.094Z,7.30
2023-01-06T06:04:51.667Z,7.34
2023-01-06T06:07:54.532Z,7.45
2023-01-06T06:10:56.025Z,7.48
2023-01-06T06:13:57.733Z,7.48
2023-01-06T06:16:59.251Z,7.48
2023-01-06T06:20:00.790Z,7.53
2023-01-06T06:23:02.315Z,7.56
2023-01-06T06:26:03.874Z,7.53
2023-01-06T06:29:06.571Z,7.49
2023-01-06T06:32:08.145Z,7.47
2023-01-06T06:35:09.754Z,7.46
2023-01-06T06:38:11.533Z,7.42
2023-01-06T06:41:13.096Z,7.44
2023-01-06T06:44:14.614Z,7.42
2023-01-06T06:47:16.204Z,7.33
2023-01-06T06:50:17.734Z,7.40
2023-01-06T06:53:20.661Z,7.41
2023-01-06T06:56:22.237Z,7.49
2023-01-06T06:59:23.769Z,7.53
2023-01-06T07:02:25.344Z,7.51
2023-01-06T07:05:26.932Z,7.47
2023-01-06T07:08:28.470Z,7.50
2023-01-06T07:11:29.981Z,7.55
2023-01-06T07:14:31.491Z,7.53
2023-01-06T07:17:33.007Z,7.53
2023-01-06T07:20:35.501Z,7.52
2023-01-06T07:23:37.075Z,7.66
2023-01-06T07:26:38.646Z,7.69
2023-01-06T07:29:40.169Z,7.73
2023-01-06T07:32:42.262Z,7.74
2023-01-06T07:35:43.834Z,7.75
2023-01-06T07:38:45.381Z,7.77
2023-01-06T07:41:46.896Z,7.82
2023-01-06T07:44:48.425Z,7.83
2023-01-06T07:47:50.114Z,7.87
2023-01-06T07:50:51.652Z,7.93
2023-01-06T07:53:53.155Z,7.91
2023-01-06T07:56:54.717Z,7.90
2023-01-06T07:59:56.331Z,7.84
2023-01-06T08:02:57.944Z,7.82
2023-01-06T08:05:59.512Z,7.78
2023-01-06T08:09:01.816Z,7.75
2023-01-06T08:12:03.199Z,7.73
2023-01-06T08:15:05.335Z,7.71
2023-01-06T08:18:07.061Z,7.66
2023-01-06T08:21:09.554Z,7.69
2023-01-06T08:24:11.158Z,7.70
2023-01-06T08:27:12.687Z,7.71
2023-01-06T08:30:14.337Z,7.70
2023-01-06T08:33:15.883Z,7.66
2023-01-06T08:36:18.204Z,7.69
2023-01-06T08:39:19.599Z,7.66
2023-01-06T08:42:21.331Z,7.67
2023-01-06T08:45:22.853Z,7.66
2023-01-06T08:48:24.381Z,7.68
2023-01-06T08:51:26.091Z,7.68
2023-01-06T08:54:29.002Z,7.66
2023-01-06T08:57:30.573Z,7.67
2023-01-06T09:00:32.126Z,7.71
2023-01-06T09:03:33.641Z,7.74
2023-01-06T09:06:35.331Z,7.80
2023-01-06T09:09:36.855Z,7.80
2023-01-06T09:12:38.497Z,7.79
2023-01-06T09:15:41.170Z,7.81
2023-01-06T09:18:48.349Z,7.85
2023-01-06T09:21:49.900Z,7.88
2023-01-06T09:24:51.442Z,7.94
2023-01-06T09:27:52.994Z,7.95
2023-01-06T09:30:54.593Z,7.98
2023-01-06T09:33:56.202Z,8.06
2023-01-06T09:36:57.758Z,8.09
2023-01-06T09:39:59.341Z,8.10
2023-01-06T09:43:22.633Z,8.11
2023-01-06T09:46:30.207Z,8.26
2023-01-06T09:49:44.560Z,8.50
2023-01-06T09:52:49.155Z,8.62
2023-01-06T09:55:52.296Z,8.70
2023-01-06T09:59:16.933Z,8.72
2023-01-06T10:02:24.542Z,8.73
2023-01-06T10:05:42.879Z,8.80
2023-01-06T10:09:00.961Z,8.76
2023-01-06T10:12:30.533Z,8.75
2023-01-06T10:16:20.174Z,8.76
2023-01-06T10:19:28.440Z,8.82
2023-01-06T10:23:07.704Z,8.82
2023-01-06T10:26:13.048Z,8.87
2023-01-06T10:29:16.603Z,8.98
2023-01-06T10:32:18.181Z,9.08
2023-01-06T10:35:21.714Z,9.14
2023-01-06T10:38:26.924Z,9.22
2023-01-06T10:41:39.465Z,9.34
2023-01-06T10:44:40.977Z,9.34
2023-01-06T10:47:42.845Z,9.33
2023-01-06T10:50:44.584Z,9.38
2023-01-06T10:53:46.104Z,9.37
2023-01-06T10:56:51.463Z,9.39
2023-01-06T11:00:32.299Z,9.36
2023-01-06T11:03:34.884Z,9.38
2023-01-06T11:06:37.126Z,9.34
2023-01-06T11:09:42.757Z,9.36
2023-01-06T11:12:44.893Z,9.39
2023-01-06T11:15:46.672Z,9.43
2023-01-06T11:18:56.066Z,9.43
2023-01-06T11:21:57.564Z,9.41
2023-01-06T11:24:59.100Z,9.45
2023-01-06T11:28:12.797Z,9.47
2023-01-06T11:31:14.234Z,9.54
2023-01-06T11:34:20.881Z,9.54
2023-01-06T11:37:37.713Z,9.64
2023-01-06T11:40:39.345Z,9.68
2023-01-06T11:43:43.503Z,9.62
2023-01-06T11:46:50.381Z,9.63
2023-01-06T11:49:57.088Z,9.59
2023-01-06T11:53:03.107Z,9.60
2023-01-06T11:56:14.134Z,9.54
2023-01-06T11:59:15.654Z,9.52
2023-01-06T12:02:23.989Z,9.49
2023-01-06T12:05:32.203Z,9.45
2023-01-06T12:08:36.930Z,9.38
2023-01-06T12:11:48.982Z,9.36
2023-01-06T12:14:50.502Z,9.38
2023-01-06T12:17:58.023Z,9.35
2023-01-06T12:21:00.253Z,9.31
2023-01-06T12:24:01.717Z,9.29
2023-01-06T12:27:03.668Z,9.24
2023-01-06T12:30:08.877Z,9.21
2023-01-06T12:33:18.380Z,9.19
2023-01-06T12:36:38.155Z,9.09
2023-01-06T12:40:09.049Z,9.06
2023-01-06T12:43:18.548Z,9.01
2023-01-06T12:46:24.328Z,8.97
2023-01-06T12:49:34.711Z,8.97
2023-01-06T12:52:40.255Z,8.93
2023-01-06T12:55:44.142Z,8.93
2023-01-06T12:58:56.438Z,8.91
2023-01-06T13:02:16.995Z,8.92
2023-01-06T13:05:21.576Z,8.89
2023-01-06T13:09:11.101Z,8.88
2023-01-06T13:12:28.223Z,8.89
2023-01-06T13:15:30.967Z,8.84
2023-01-06T13:18:50.319Z,8.84
2023-01-06T13:21:52.385Z,8.84
2023-01-06T13:25:00.859Z,8.85
2023-01-06T13:28:07.498Z,8.88
2023-01-06T13:31:41.183Z,8.93
2023-01-06T13:34:50.172Z,8.99
2023-01-06T13:38:13.570Z,9.06
2023-01-06T13:41:16.620Z,9.06
2023-01-06T13:44:27.182Z,9.03
2023-01-06T13:47:29.170Z,9.03
2023-01-06T13:50:30.725Z,9.02
2023-01-06T13:53:39.989Z,8.99
2023-01-06T13:56:41.526Z,8.97
2023-01-06T14:00:05.136Z,8.91
2023-01-06T14:03:14.347Z,8.90
2023-01-06T14:06:22.137Z,8.86
2023-01-06T14:09:23.659Z,8.86
2023-01-06T14:12:25.222Z,8.83
2023-01-06T14:15:33.406Z,8.84
2023-01-06T14:18:42.627Z,8.82
2023-01-06T14:21:44.691Z,8.85
2023-01-06T14:24:51.236Z,8.82
2023-01-06T14:27:52.635Z,8.83
2023-01-06T14:31:31.470Z,8.84
2023-01-06T14:34:33.033Z,8.86
2023-01-06T14:37:43.239Z,8.85
2023-01-06T14:41:00.261Z,8.86
2023-01-06T14:44:18.433Z,8.85
2023-01-06T14:47:27.084Z,8.83
2023-01-06T14:50:46.120Z,8.83
2023-01-06T14:53:51.274Z,8.81
2023-01-06T14:56:57.535Z,8.80
2023-01-06T15:00:18.946Z,8.81
2023-01-06T15:03:21.485Z,8.74
2023-01-06T15:06:24.477Z,8.75
2023-01-06T15:09:26.052Z,8.73
2023-01-06T15:12:31.806Z,8.71
2023-01-06T15:15:33.817Z,8.70
2023-01-06T15:18:35.531Z,8.68
2023-01-06T15:21:40.491Z,8.65
2023-01-06T15:24:42.335Z,8.63
2023-01-06T15:27:49.027Z,8.62
2023-01-06T15:30:50.950Z,8.59
2023-01-06T15:33:52.584Z,8.56
2023-01-06T15:36:54.473Z,8.53
2023-01-06T15:39:56.006Z,8.55
2023-01-06T15:42:57.750Z,8.56
2023-01-06T15:46:04.863Z,8.52
2023-01-06T15:49:06.411Z,8.50
2023-01-06T15:52:21.473Z,8.48
2023-01-06T15:55:34.108Z,8.44
2023-01-06T15:58:36.975Z,8.42
2023-01-06T16:01:38.626Z,8.41
2023-01-06T16:04:43.298Z,8.41
2023-01-06T16:07:47.137Z,8.37
2023-01-06T16:10:48.731Z,8.29
2023-01-06T16:13:59.587Z,8.25
2023-01-06T16:17:04.189Z,8.23
2023-01-06T16:20:07.688Z,8.18
2023-01-06T16:23:18.451Z,8.14
2023-01-06T16:26:21.658Z,8.14
2023-01-06T16:29:30.194Z,8.09
2023-01-06T16:32:35.567Z,8.02
2023-01-06T16:35:37.116Z,8.02
2023-01-06T16:38:38.701Z,8.00
2023-01-06T16:41:58.682Z,7.96
2023-01-06T16:45:01.687Z,7.90
2023-01-06T16:48:03.278Z,7.89
2023-01-06T16:51:08.894Z,7.83
2023-01-06T16:54:13.864Z,7.81
2023-01-06T16:57:15.469Z,7.76
2023-01-06T17:00:19.668Z,7.72
2023-01-06T17:03:22.821Z,7.71
2023-01-06T17:06:26.347Z,7.67
2023-01-06T17:09:29.939Z,7.67
2023-01-06T17:12:50.090Z,7.64
2023-01-06T17:15:54.840Z,7.62
2023-01-06T17:18:56.943Z,7.60
2023-01-06T17:22:06.642Z,7.58
2023-01-06T17:25:11.649Z,7.53
2023-01-06T17:28:19.091Z,7.50
2023-01-06T17:31:33.058Z,7.49
2023-01-06T17:34:36.173Z,7.47
2023-01-06T17:37:37.682Z,7.47
2023-01-06T17:40:39.304Z,7.47
2023-01-06T17:43:40.835Z,7.45
2023-01-06T17:46:42.498Z,7.43
2023-01-06T17:49:44.612Z,7.41
2023-01-06T17:53:06.104Z,7.40
2023-01-06T17:56:09.545Z,7.37
2023-01-06T17:59:15.748Z,7.32
2023-01-06T18:02:23.073Z,7.30
2023-01-06T18:05:24.474Z,7.27
2023-01-06T18:08:26.253Z,7.27
2023-01-06T18:11:35.637Z,7.29
2023-01-06T18:14:38.834Z,7.33
2023-01-06T18:17:40.437Z,7.35
2023-01-06T18:20:46.697Z,7.31
2023-01-06T18:23:50.633Z,7.28
2023-01-06T18:27:03.428Z,7.23
2023-01-06T18:30:15.461Z,7.22
2023-01-06T18:33:17.198Z,7.22
2023-01-06T18:36:18.723Z,7.19
2023-01-06T18:39:31.479Z,7.19
2023-01-06T18:42:38.035Z,7.18
2023-01-06T18:45:39.655Z,7.17
2023-01-06T18:48:41.226Z,7.17
2023-01-06T18:51:42.991Z,7.13
2023-01-06T18:54:44.573Z,7.13
2023-01-06T18:57:50.527Z,7.11
2023-01-06T19:00:54.083Z,7.09
2023-01-06T19:04:14.627Z,7.10
2023-01-06T19:07:28.112Z,7.07
2023-01-06T19:10:29.817Z,7.02
2023-01-06T19:13:32.200Z,7.01
2023-01-06T19:16:56.259Z,7.00
2023-01-06T19:20:00.295Z,6.94
2023-01-06T19:23:10.542Z,6.96
2023-01-06T19:26:31.646Z,6.96
2023-01-06T19:29:33.544Z,6.93
2023-01-06T19:32:35.172Z,6.92
2023-01-06T19:35:36.793Z,6.93
2023-01-06T19:38:41.795Z,6.93
2023-01-06T19:41:43.328Z,6.90
2023-01-06T19:44:45.054Z,6.90
2023-01-06T19:47:46.557Z,6.90
2023-01-06T19:50:48.108Z,6.90
2023-01-06T19:53:57.490Z,6.89
2023-01-06T19:56:59.058Z,6.88
2023-01-06T20:00:00.614Z,6.91
2023-01-06T20:03:03.345Z,6.89
2023-01-06T20:06:05.143Z,6.90
2023-01-06T20:09:06.678Z,6.89
2023-01-06T20:12:08.196Z,6.87
2023-01-06T20:15:10.672Z,6.88
2023-01-06T20:18:12.198Z,6.88
2023-01-06T20:21:14.081Z,6.89
2023-01-06T20:24:15.668Z,6.90
2023-01-06T20:27:17.991Z,6.89
2023-01-06T20:30:19.646Z,6.91
2023-01-06T20:33:21.161Z,6.91
2023-01-06T20:36:22.720Z,6.93
2023-01-06T20:39:24.239Z,6.96
2023-01-06T20:42:25.743Z,6.93
2023-01-06T20:45:27.261Z,6.92
2023-01-06T20:48:28.772Z,6.91
2023-01-06T20:51:30.306Z,6.92
2023-01-06T20:54:31.863Z,6.89
2023-01-06T20:57:33.405Z,6.91
2023-01-06T21:00:34.918Z,6.87
2023-01-06T21:03:36.420Z,6.88
2023-01-06T21:06:37.942Z,6.89
2023-01-06T21:09:39.493Z,6.89
2023-01-06T21:12:41.054Z,6.88
2023-01-06T21:15:42.631Z,6.89
2023-01-06T21:18:44.264Z,6.88
2023-01-06T21:21:45.828Z,6.90
2023-01-06T21:24:47.327Z,6.88
2023-01-06T21:27:48.851Z,6.88
2023-01-06T21:30:50.546Z,6.85
2023-01-06T21:33:52.136Z,6.84
2023-01-06T21:36:53.654Z,6.81
2023-01-06T21:39:55.198Z,6.85
2023-01-06T21:43:08.838Z,6.85
2023-01-06T21:46:10.474Z,6.83
2023-01-06T21:49:12.035Z,6.87
2023-01-06T21:52:15.063Z,6.85
2023-01-06T21:55:16.651Z,6.84
2023-01-06T21:58:18.181Z,6.81
2023-01-06T22:01:19.810Z,6.76
2023-01-06T22:04:21.363Z,6.73
2023-01-06T22:07:22.957Z,6.71
2023-01-06T22:10:24.645Z,6.74
2023-01-06T22:13:26.177Z,6.72
2023-01-06T22:16:27.711Z,6.75
2023-01-06T22:19:29.306Z,6.75
2023-01-06T22:22:30.919Z,6.73
2023-01-06T22:25:32.507Z,6.72
2023-01-06T22:28:34.043Z,6.72
2023-01-06T22:31:36.201Z,6.72
2023-01-06T22:34:37.724Z,6.70
2023-01-06T22:37:39.422Z,6.68
2023-01-06T22:40:40.979Z,6.69
2023-01-06T22:43:42.493Z,6.69
2023-01-06T22:46:44.023Z,6.66
2023-01-06T22:49:45.534Z,6.67
2023-01-06T22:52:47.057Z,6.69
2023-01-06T22:55:56.796Z,6.67
2023-01-06T22:58:58.344Z,6.65
2023-01-06T23:01:59.986Z,6.67
2023-01-06T23:05:01.606Z,6.65
2023-01-06T23:08:03.374Z,6.62
2023-01-06T23:11:15.613Z,6.61
2023-01-06T23:14:17.134Z,6.63
2023-01-06T23:17:18.654Z,6.63
2023-01-06T23:20:20.315Z,6.61
2023-01-06T23:23:21.810Z,6.59
2023-01-06T23:26:28.281Z,6.60
2023-01-06T23:29:29.803Z,6.61
2023-01-06T23:32:31.314Z,6.60
2023-01-06T23:35:32.852Z,6.61
2023-01-06T23:38:34.392Z,6.61
2023-01-06T23:41:36.727Z,6.61
2023-01-06T23:44:38.178Z,6.59
2023-01-06T23:47:39.700Z,6.57
2023-01-06T23:50:49.505Z,6.53
2023-01-06T23:53:51.520Z,6.53
2023-01-06T23:56:53.080Z,6.52
2023-01-06T23:59:54.659Z,6.52
